Time;durP1;ratioP1;P1;durP2;ratioP2;P2;SDS_P1;SDS_P2;PMS_P1;PMS_P2;Temp;Humidity;BMP_temperature;BMP_pressure;BME280_temperature;BME280_humidity;BME280_pressure;Samples;Min_cycle;Max_cycle;Signal;HPM_P1;HPM_P2
2022/11/19 00:00:07;;;;;;;5.10;2.80;;;;;;;;;;108479;1267;22516;-31
2022/11/19 00:03:01;;;;;;;4.40;2.90;;;;;;;;;;108403;1268;23844;-31
2022/11/19 00:05:36;;;;;;;5.00;3.20;;;;;;;;;;108434;1268;22754;-31
2022/11/19 00:08:09;;;;;;;5.10;2.90;;;;;;;;;;108449;1267;22584;-32
2022/11/19 00:10:40;;;;;;;;;;;;;;;;;;108475;1267;22531;-31
2022/11/19 00:13:14;;;;;;;5.00;2.80;;;;;;;;;;108468;1267;22496;-31
2022/11/19 00:15:48;;;;;;;4.70;2.80;;;;;;;;;;108453;1268;23793;-31
2022/11/19 00:18:20;;;;;;;5.00;2.90;;;;;;;;;;108315;1269;22613;-31
2022/11/19 00:20:54;;;;;;;5.20;2.90;;;;;;;;;;108457;1262;22556;-32
2022/11/19 00:23:27;;;;;;;4.70;2.80;;;;;;;;;;108420;1268;22589;-32
2022/11/19 00:26:08;;;;;;;4.70;2.90;;;;;;;;;;108438;1265;22970;-32
2022/11/19 00:28:41;;;;;;;4.70;3.20;;;;;;;;;;108448;1267;22567;-31
2022/11/19 00:31:15;;;;;;;5.20;3.30;;;;;;;;;;108476;1268;22556;-31
2022/11/19 00:33:49;;;;;;;4.90;3.10;;;;;;;;;;108409;1267;25524;-31
2022/11/19 00:36:22;;;;;;;4.70;2.90;;;;;;;;;;108467;1267;24195;-31
2022/11/19 00:38:56;;;;;;;4.90;2.50;;;;;;;;;;108456;1267;22719;-31
2022/11/19 00:41:31;;;;;;;4.80;2.90;;;;;;;;;;108468;1267;22555;-31
2022/11/19 00:44:05;;;;;;;4.80;3.00;;;;;;;;;;108372;1267;22583;-32
2022/11/19 00:46:39;;;;;;;4.70;2.80;;;;;;;;;;108443;1267;22572;-31
2022/11/19 00:49:14;;;;;;;4.70;3.00;;;;;;;;;;108440;1267;22614;-32
2022/11/19 00:51:46;;;;;;;5.00;3.10;;;;;;;;;;108467;1268;22603;-32
2022/11/19 00:54:18;;;;;;;4.40;2.60;;;;;;;;;;108421;1267;22514;-31
2022/11/19 00:56:50;;;;;;;4.70;2.70;;;;;;;;;;108442;1268;22550;-32
2022/11/19 00:59:22;;;;;;;5.10;2.80;;;;;;;;;;108455;1268;22769;-32
2022/11/19 01:01:56;;;;;;;4.90;3.10;;;;;;;;;;108422;1265;22544;-29
2022/11/19 01:04:28;;;;;;;4.50;2.70;;;;;;;;;;108457;1264;22564;-28
2022/11/19 01:07:02;;;;;;;4.30;2.80;;;;;;;;;;108434;1267;22773;-28
2022/11/19 01:09:36;;;;;;;4.70;2.90;;;;;;;;;;108430;1267;22554;-29
2022/11/19 01:12:08;;;;;;;4.50;2.70;;;;;;;;;;108467;1268;22609;-28
2022/11/19 01:14:41;;;;;;;4.30;2.70;;;;;;;;;;108452;1267;22483;-29
2022/11/19 01:17:13;;;;;;;4.90;3.00;;;;;;;;;;108457;1264;22598;-29
2022/11/19 01:19:48;;;;;;;4.60;2.90;;;;;;;;;;108450;1261;22634;-28
2022/11/19 01:22:20;;;;;;;4.70;2.90;;;;;;;;;;108463;1268;22880;-28
2022/11/19 01:24:52;;;;;;;4.30;2.80;;;;;;;;;;108444;1267;23932;-28
2022/11/19 01:27:24;;;;;;;4.50;2.70;;;;;;;;;;108439;1268;22556;-29
2022/11/19 01:29:56;;;;;;;4.50;3.00;;;;;;;;;;108431;1266;22964;-28
2022/11/19 01:32:28;;;;;;;4.70;2.70;;;;;;;;;;108445;1268;22495;-29
2022/11/19 01:35:01;;;;;;;4.60;2.80;;;;;;;;;;108373;1268;24193;-29
2022/11/19 01:37:33;;;;;;;5.00;2.90;;;;;;;;;;108447;1267;22619;-28
2022/11/19 01:40:08;;;;;;;4.90;2.70;;;;;;;;;;108447;1268;25418;-28
2022/11/19 01:42:49;;;;;;;3.90;2.70;;;;;;;;;;108490;1262;22609;-28
2022/11/19 01:45:33;;;;;;;4.60;2.90;;;;;;;;;;108429;1267;22570;-29
2022/11/19 01:48:12;;;;;;;5.10;2.80;;;;;;;;;;108468;1268;22610;-29
2022/11/19 01:50:52;;;;;;;5.10;2.90;;;;;;;;;;108463;1268;22609;-28
2022/11/19 01:53:31;;;;;;;4.50;2.90;;;;;;;;;;108434;1268;23916;-29
2022/11/19 01:56:10;;;;;;;4.60;2.90;;;;;;;;;;108461;1266;23840;-29
2022/11/19 01:58:47;;;;;;;5.30;3.20;;;;;;;;;;108409;1268;24221;-29
2022/11/19 02:01:20;;;;;;;4.30;2.60;;;;;;;;;;108436;1268;22717;-29
2022/11/19 02:03:52;;;;;;;;;;;;;;;;;;108467;1268;22677;-29
2022/11/19 02:06:24;;;;;;;4.60;2.90;;;;;;;;;;108426;1267;22573;-28
2022/11/19 02:08:56;;;;;;;4.50;2.90;;;;;;;;;;108444;1267;22545;-29
2022/11/19 02:12:13;;;;;;;4.60;2.80;;;;;;;;;;108455;1267;25451;-32
2022/11/19 02:15:05;;;;;;;5.30;2.80;;;;;;;;;;108390;1269;22566;-31
2022/11/19 02:18:20;;;;;;;5.00;2.80;;;;;;;;;;108469;1267;25223;-31
2022/11/19 02:21:31;;;;;;;4.50;2.90;;;;;;;;;;108495;1268;22583;-32
2022/11/19 02:24:37;;;;;;;4.70;2.80;;;;;;;;;;108410;1267;22684;-31
2022/11/19 02:27:54;;;;;;;4.40;2.70;;;;;;;;;;108434;1267;22866;-31
2022/11/19 02:30:26;;;;;;;4.40;2.80;;;;;;;;;;108332;1269;22538;-31
2022/11/19 02:33:07;;;;;;;5.20;2.90;;;;;;;;;;108479;1267;23811;-31
2022/11/19 02:35:49;;;;;;;4.80;3.00;;;;;;;;;;108430;1267;25406;-31
2022/11/19 02:38:31;;;;;;;4.60;2.70;;;;;;;;;;108479;1268;25237;-31
2022/11/19 02:46:58;;;;;;;4.30;2.70;;;;;;;;;;108414;1271;22602;-31
2022/11/19 02:49:34;;;;;;;4.40;2.60;;;;;;;;;;108454;1268;23905;-32
2022/11/19 02:52:09;;;;;;;4.20;2.60;;;;;;;;;;108458;1268;25213;-31
2022/11/19 02:54:41;;;;;;;4.70;3.10;;;;;;;;;;108433;1268;22590;-31
2022/11/19 02:57:17;;;;;;;4.20;2.70;;;;;;;;;;108415;1269;22593;-31
2022/11/19 03:05:44;;;;;;;4.40;3.00;;;;;;;;;;108456;1268;22571;-31
2022/11/19 03:08:16;;;;;;;5.00;3.00;;;;;;;;;;108441;1267;25264;-31
2022/11/19 03:11:02;;;;;;;4.70;3.10;;;;;;;;;;108463;1267;22559;-31
2022/11/19 03:16:41;;;;;;;5.00;3.10;;;;;;;;;;108425;1267;22554;-31
2022/11/19 03:19:27;;;;;;;5.20;3.40;;;;;;;;;;108464;1268;22586;-31
2022/11/19 03:22:06;;;;;;;5.30;3.00;;;;;;;;;;108455;1267;22497;-31
2022/11/19 03:24:44;;;;;;;5.20;3.20;;;;;;;;;;108449;1268;23845;-31
2022/11/19 03:27:22;;;;;;;5.20;3.60;;;;;;;;;;108292;1264;22611;-31
2022/11/19 03:29:59;;;;;;;4.40;3.00;;;;;;;;;;108500;1267;22560;-31
2022/11/19 03:32:37;;;;;;;5.60;3.60;;;;;;;;;;108467;1267;24037;-31
2022/11/19 03:35:14;;;;;;;4.70;3.10;;;;;;;;;;108461;1268;22504;-31
2022/11/19 03:37:51;;;;;;;5.10;2.90;;;;;;;;;;108412;1266;22642;-31
2022/11/19 03:40:26;;;;;;;4.90;3.30;;;;;;;;;;108491;1269;22512;-31
2022/11/19 03:43:00;;;;;;;5.00;3.20;;;;;;;;;;108446;1269;22522;-31
2022/11/19 03:45:38;;;;;;;5.30;3.10;;;;;;;;;;108453;1269;22596;-31
2022/11/19 03:48:11;;;;;;;5.30;3.30;;;;;;;;;;108443;1268;22716;-31
2022/11/19 03:50:50;;;;;;;4.70;3.10;;;;;;;;;;108455;1268;22574;-31
2022/11/19 03:53:25;;;;;;;5.10;3.10;;;;;;;;;;108448;1274;22564;-31
2022/11/19 03:56:08;;;;;;;5.00;3.30;;;;;;;;;;108450;1267;22557;-31
2022/11/19 03:58:44;;;;;;;4.60;3.00;;;;;;;;;;108420;1267;22554;-31
2022/11/19 04:01:17;;;;;;;4.70;3.10;;;;;;;;;;108234;1271;325665;-31
2022/11/19 04:06:35;;;;;;;4.70;3.00;;;;;;;;;;108467;1274;22536;-31
2022/11/19 04:09:07;;;;;;;5.10;3.30;;;;;;;;;;108397;1265;22552;-32
2022/11/19 04:11:39;;;;;;;5.10;3.20;;;;;;;;;;108435;1269;22549;-32
2022/11/19 04:14:11;;;;;;;4.40;3.00;;;;;;;;;;108436;1268;22762;-32
2022/11/19 04:16:46;;;;;;;4.90;3.10;;;;;;;;;;108433;1267;22546;-32
2022/11/19 04:19:18;;;;;;;6.80;3.30;;;;;;;;;;108385;1267;22548;-32
2022/11/19 04:21:50;;;;;;;4.50;3.00;;;;;;;;;;108414;1267;22581;-32
2022/11/19 04:24:22;;;;;;;4.80;3.20;;;;;;;;;;108429;1268;22778;-32
2022/11/19 04:26:55;;;;;;;4.80;3.10;;;;;;;;;;108464;1267;22554;-32
2022/11/19 04:29:27;;;;;;;5.00;3.10;;;;;;;;;;108403;1261;25269;-32
2022/11/19 04:31:59;;;;;;;4.60;3.10;;;;;;;;;;108459;1267;23931;-31
2022/11/19 04:34:31;;;;;;;4.90;3.30;;;;;;;;;;108419;1268;25987;-32
2022/11/19 04:37:04;;;;;;;5.70;3.20;;;;;;;;;;108433;1267;23792;-31
2022/11/19 04:39:36;;;;;;;4.90;3.20;;;;;;;;;;108407;1268;22610;-33
2022/11/19 04:42:08;;;;;;;5.10;3.20;;;;;;;;;;108439;1268;23916;-32
2022/11/19 04:44:41;;;;;;;5.50;3.20;;;;;;;;;;108424;1265;23834;-34
2022/11/19 04:47:15;;;;;;;5.10;3.40;;;;;;;;;;108430;1265;22793;-34
2022/11/19 04:49:50;;;;;;;5.20;3.40;;;;;;;;;;108392;1268;22575;-33
2022/11/19 04:52:22;;;;;;;5.30;3.30;;;;;;;;;;108416;1271;22500;-33
2022/11/19 04:54:56;;;;;;;5.50;3.60;;;;;;;;;;108452;1265;23907;-33
2022/11/19 04:57:28;;;;;;;5.60;3.30;;;;;;;;;;108430;1267;23817;-34
2022/11/19 05:00:00;;;;;;;5.40;3.60;;;;;;;;;;108420;1268;22698;-33
2022/11/19 05:02:34;;;;;;;5.50;3.50;;;;;;;;;;108447;1272;22679;-34
2022/11/19 05:05:09;;;;;;;5.50;3.80;;;;;;;;;;108417;1265;23945;-33
2022/11/19 05:07:42;;;;;;;5.50;3.80;;;;;;;;;;108452;1268;22555;-34
2022/11/19 05:10:15;;;;;;;6.10;3.80;;;;;;;;;;108414;1268;24423;-33
2022/11/19 05:12:47;;;;;;;5.20;3.40;;;;;;;;;;108431;1268;22511;-33
2022/11/19 05:15:19;;;;;;;5.60;3.50;;;;;;;;;;108410;1268;24478;-33
2022/11/19 05:17:52;;;;;;;5.40;3.60;;;;;;;;;;108416;1271;22547;-33
2022/11/19 05:20:24;;;;;;;5.30;3.80;;;;;;;;;;108398;1268;22612;-33
2022/11/19 05:22:56;;;;;;;5.20;3.50;;;;;;;;;;108449;1267;22518;-33
2022/11/19 05:25:28;;;;;;;5.40;3.70;;;;;;;;;;108459;1268;22701;-34
2022/11/19 05:28:00;;;;;;;5.50;3.50;;;;;;;;;;108439;1274;22537;-33
2022/11/19 05:30:34;;;;;;;5.20;3.60;;;;;;;;;;108432;1268;22593;-33
2022/11/19 05:33:07;;;;;;;5.20;3.70;;;;;;;;;;108465;1267;22535;-33
2022/11/19 05:35:39;;;;;;;5.20;3.40;;;;;;;;;;108424;1267;25968;-33
2022/11/19 05:38:11;;;;;;;5.70;3.50;;;;;;;;;;108435;1268;22614;-33
2022/11/19 05:40:45;;;;;;;5.20;3.20;;;;;;;;;;108389;1264;22563;-33
2022/11/19 05:43:15;;;;;;;;;;;;;;;;;;108447;1274;22535;-33
2022/11/19 05:45:48;;;;;;;5.40;3.40;;;;;;;;;;108437;1268;22611;-33
2022/11/19 05:48:20;;;;;;;4.90;3.20;;;;;;;;;;108449;1268;22554;-33
2022/11/19 05:50:52;;;;;;;5.60;3.40;;;;;;;;;;108411;1272;24203;-33
2022/11/19 05:53:27;;;;;;;5.80;3.40;;;;;;;;;;108449;1264;22551;-33
2022/11/19 05:56:00;;;;;;;5.70;3.80;;;;;;;;;;108455;1268;22733;-33
2022/11/19 05:58:34;;;;;;;4.80;3.20;;;;;;;;;;108435;1265;22639;-33
2022/11/19 06:01:07;;;;;;;6.60;3.60;;;;;;;;;;108381;1268;25417;-33
2022/11/19 06:03:40;;;;;;;5.80;3.60;;;;;;;;;;108429;1267;22589;-33
2022/11/19 06:06:15;;;;;;;6.10;3.70;;;;;;;;;;108458;1274;22606;-33
2022/11/19 06:08:47;;;;;;;5.50;3.60;;;;;;;;;;108446;1272;22528;-33
2022/11/19 06:14:09;;;;;;;6.50;3.50;;;;;;;;;;108471;1271;22594;-33
2022/11/19 06:16:41;;;;;;;5.90;3.60;;;;;;;;;;108460;1273;22535;-33
2022/11/19 06:19:13;;;;;;;6.30;3.80;;;;;;;;;;108479;1274;25518;-34
2022/11/19 06:21:49;;;;;;;5.70;3.20;;;;;;;;;;108374;1268;22653;-33
2022/11/19 06:24:21;;;;;;;5.90;3.70;;;;;;;;;;108432;1267;22529;-33
2022/11/19 06:26:55;;;;;;;5.50;3.60;;;;;;;;;;108455;1273;22563;-33
2022/11/19 06:29:27;;;;;;;5.50;3.70;;;;;;;;;;108454;1268;22552;-33
2022/11/19 06:31:59;;;;;;;5.80;3.60;;;;;;;;;;108410;1268;22550;-33
2022/11/19 06:34:31;;;;;;;5.60;3.80;;;;;;;;;;108457;1268;25947;-33
2022/11/19 06:37:03;;;;;;;5.20;3.40;;;;;;;;;;108441;1268;22612;-33
2022/11/19 06:39:37;;;;;;;6.00;3.40;;;;;;;;;;108445;1264;23869;-33
2022/11/19 06:44:58;;;;;;;5.20;3.70;;;;;;;;;;108458;1269;22521;-33
2022/11/19 06:47:32;;;;;;;5.60;3.80;;;;;;;;;;108458;1270;22946;-33
2022/11/19 06:50:09;;;;;;;5.50;4.00;;;;;;;;;;108454;1272;22545;-33
2022/11/19 06:52:41;;;;;;;5.60;3.30;;;;;;;;;;108464;1274;22546;-33
2022/11/19 06:55:13;;;;;;;5.70;3.90;;;;;;;;;;108457;1267;22590;-33
2022/11/19 06:57:46;;;;;;;5.60;3.70;;;;;;;;;;108427;1270;22728;-33
2022/11/19 07:00:20;;;;;;;6.30;4.20;;;;;;;;;;108452;1269;22583;-33
2022/11/19 07:02:52;;;;;;;5.10;3.70;;;;;;;;;;108429;1274;22523;-33
2022/11/19 07:05:24;;;;;;;5.70;3.70;;;;;;;;;;108459;1274;22563;-33
2022/11/19 07:07:56;;;;;;;5.90;4.00;;;;;;;;;;108439;1265;22548;-33
2022/11/19 07:10:28;;;;;;;6.00;3.90;;;;;;;;;;108419;1265;22534;-33
2022/11/19 07:13:00;;;;;;;5.70;3.90;;;;;;;;;;108411;1267;23847;-33
2022/11/19 07:15:32;;;;;;;6.60;4.20;;;;;;;;;;108428;1274;22632;-33
2022/11/19 07:18:05;;;;;;;6.80;4.20;;;;;;;;;;108461;1265;22677;-33
2022/11/19 07:20:37;;;;;;;5.40;3.80;;;;;;;;;;108449;1270;22557;-33
2022/11/19 07:23:13;;;;;;;5.80;3.60;;;;;;;;;;108435;1270;22567;-33
2022/11/19 07:25:48;;;;;;;5.70;3.80;;;;;;;;;;108418;1274;22607;-33
2022/11/19 07:28:20;;;;;;;5.40;3.70;;;;;;;;;;108445;1265;22558;-30
2022/11/19 07:30:52;;;;;;;5.80;3.80;;;;;;;;;;108456;1267;22566;-30
2022/11/19 07:33:24;;;;;;;5.80;3.90;;;;;;;;;;108396;1266;22744;-32
2022/11/19 07:35:56;;;;;;;5.30;3.70;;;;;;;;;;108394;1267;22499;-32
2022/11/19 07:38:29;;;;;;;6.00;4.10;;;;;;;;;;108395;1273;22551;-31
2022/11/19 07:41:01;;;;;;;5.90;3.90;;;;;;;;;;108425;1268;22572;-31
2022/11/19 07:43:33;;;;;;;5.20;3.70;;;;;;;;;;108376;1274;22541;-30
2022/11/19 07:46:12;;;;;;;5.30;3.50;;;;;;;;;;108409;1264;22567;-31
2022/11/19 07:48:45;;;;;;;6.30;4.00;;;;;;;;;;108423;1274;22564;-31
2022/11/19 07:51:19;;;;;;;5.30;3.70;;;;;;;;;;108407;1269;22566;-31
2022/11/19 07:53:52;;;;;;;6.40;3.80;;;;;;;;;;108366;1268;22501;-30
2022/11/19 07:56:25;;;;;;;5.50;3.50;;;;;;;;;;108377;1272;22500;-31
2022/11/19 07:58:57;;;;;;;5.40;3.70;;;;;;;;;;108415;1274;22555;-31
2022/11/19 08:01:29;;;;;;;5.80;4.10;;;;;;;;;;108423;1274;22500;-31
2022/11/19 08:04:04;;;;;;;6.00;3.90;;;;;;;;;;108361;1273;22514;-31
2022/11/19 08:06:36;;;;;;;5.90;4.10;;;;;;;;;;108444;1274;22615;-31
2022/11/19 08:09:10;;;;;;;5.50;3.90;;;;;;;;;;108390;1265;22568;-31
2022/11/19 08:11:42;;;;;;;6.40;4.30;;;;;;;;;;108420;1274;25448;-31
2022/11/19 08:14:19;;;;;;;6.80;4.30;;;;;;;;;;108387;1258;22619;-31
2022/11/19 08:19:40;;;;;;;6.60;4.50;;;;;;;;;;108431;1274;25515;-31
2022/11/19 08:22:14;;;;;;;7.00;4.30;;;;;;;;;;108376;1274;22612;-31
2022/11/19 08:24:47;;;;;;;5.60;3.80;;;;;;;;;;108247;1275;22553;-31
2022/11/19 08:27:20;;;;;;;6.60;4.30;;;;;;;;;;108393;1271;25934;-33
2022/11/19 08:29:52;;;;;;;5.60;3.80;;;;;;;;;;108419;1268;22596;-33
2022/11/19 08:32:24;;;;;;;7.00;4.20;;;;;;;;;;108379;1268;22627;-33
2022/11/19 08:34:56;;;;;;;6.70;4.20;;;;;;;;;;108401;1274;22584;-33
2022/11/19 08:37:28;;;;;;;6.10;4.30;;;;;;;;;;108385;1274;22556;-32
2022/11/19 08:40:02;;;;;;;6.60;4.30;;;;;;;;;;108353;1267;22810;-32
2022/11/19 08:45:25;;;;;;;6.40;4.50;;;;;;;;;;108468;1268;22753;-29
2022/11/19 08:47:56;;;;;;;;;;;;;;;;;;108503;1265;22529;-30
2022/11/19 08:50:30;;;;;;;6.60;4.70;;;;;;;;;;108516;1269;22591;-29
2022/11/19 08:53:04;;;;;;;7.90;4.90;;;;;;;;;;108425;1265;22570;-29
2022/11/19 08:55:39;;;;;;;6.70;5.10;;;;;;;;;;108441;1266;22509;-29
2022/11/19 08:58:15;;;;;;;6.90;4.90;;;;;;;;;;108526;1259;24215;-29
2022/11/19 09:00:49;;;;;;;6.30;4.70;;;;;;;;;;108563;1265;23839;-28
2022/11/19 09:03:21;;;;;;;6.60;4.70;;;;;;;;;;108554;1265;22713;-28
2022/11/19 09:06:02;;;;;;;7.10;4.50;;;;;;;;;;108517;1268;22602;-28
2022/11/19 09:08:35;;;;;;;8.80;5.40;;;;;;;;;;108535;1271;25269;-28
2022/11/19 09:11:12;;;;;;;6.80;4.80;;;;;;;;;;108602;1271;22559;-28
2022/11/19 09:13:45;;;;;;;7.20;4.50;;;;;;;;;;108548;1271;22542;-28
2022/11/19 09:16:18;;;;;;;7.70;4.90;;;;;;;;;;108554;1265;22497;-29
2022/11/19 09:18:53;;;;;;;7.80;4.70;;;;;;;;;;108530;1268;23710;-29
2022/11/19 09:21:25;;;;;;;7.40;4.60;;;;;;;;;;108568;1267;22771;-29
2022/11/19 09:23:59;;;;;;;7.10;4.70;;;;;;;;;;108496;1268;22551;-30
2022/11/19 09:26:33;;;;;;;7.20;4.70;;;;;;;;;;108543;1271;22628;-30
2022/11/19 09:29:06;;;;;;;6.20;4.40;;;;;;;;;;108564;1271;24187;-30
2022/11/19 09:31:38;;;;;;;6.70;4.80;;;;;;;;;;108588;1262;22803;-28
2022/11/19 09:34:13;;;;;;;6.90;4.80;;;;;;;;;;108486;1262;22613;-28
2022/11/19 09:36:46;;;;;;;7.30;5.00;;;;;;;;;;108567;1266;22505;-29
2022/11/19 09:39:18;;;;;;;6.40;4.50;;;;;;;;;;108572;1265;22508;-30
2022/11/19 09:41:59;;;;;;;6.30;4.60;;;;;;;;;;108545;1271;22523;-30
2022/11/19 09:45:01;;;;;;;;;;;;;;;;;;108527;1259;25920;-28
2022/11/19 09:47:44;;;;;;;7.20;4.20;;;;;;;;;;108570;1265;22552;-28
2022/11/19 09:50:24;;;;;;;6.90;4.50;;;;;;;;;;108592;1265;23986;-29
2022/11/19 09:53:02;;;;;;;6.90;4.10;;;;;;;;;;108548;1267;22548;-29
2022/11/19 09:55:39;;;;;;;6.20;4.30;;;;;;;;;;108545;1266;22543;-28
2022/11/19 09:58:20;;;;;;;6.70;4.50;;;;;;;;;;108538;1271;22556;-30
2022/11/19 10:00:58;;;;;;;7.10;4.40;;;;;;;;;;108605;1265;22499;-31
2022/11/19 10:03:32;;;;;;;6.40;4.20;;;;;;;;;;108553;1265;22543;-28
2022/11/19 10:06:27;;;;;;;6.50;4.90;;;;;;;;;;108558;1265;22553;-30
2022/11/19 10:09:39;;;;;;;6.40;4.30;;;;;;;;;;108628;1269;22549;-28
2022/11/19 10:12:28;;;;;;;8.40;4.90;;;;;;;;;;108551;1265;25946;-30
2022/11/19 10:15:18;;;;;;;5.80;4.30;;;;;;;;;;108495;1269;22700;-29
2022/11/19 10:18:04;;;;;;;6.10;4.30;;;;;;;;;;108594;1265;22545;-29
2022/11/19 10:21:04;;;;;;;6.20;4.30;;;;;;;;;;108499;1270;22641;-29
2022/11/19 10:23:51;;;;;;;6.70;4.60;;;;;;;;;;108584;1265;23201;-30
2022/11/19 10:26:33;;;;;;;5.40;4.00;;;;;;;;;;108582;1271;25302;-31
2022/11/19 10:29:14;;;;;;;5.50;3.90;;;;;;;;;;108546;1265;25347;-29
2022/11/19 10:31:50;;;;;;;6.20;3.80;;;;;;;;;;108574;1270;22758;-29
2022/11/19 10:34:33;;;;;;;6.20;3.80;;;;;;;;;;108572;1265;25229;-29
2022/11/19 10:37:12;;;;;;;5.80;3.70;;;;;;;;;;108575;1265;25394;-29
2022/11/19 10:39:49;;;;;;;5.90;3.60;;;;;;;;;;108631;1265;22639;-29
2022/11/19 10:42:27;;;;;;;6.60;3.90;;;;;;;;;;108573;1265;22553;-29
2022/11/19 10:45:09;;;;;;;5.30;3.80;;;;;;;;;;108611;1265;22583;-29
2022/11/19 10:47:47;;;;;;;5.80;3.70;;;;;;;;;;108563;1263;22561;-29
2022/11/19 10:50:24;;;;;;;5.40;3.80;;;;;;;;;;108576;1271;22608;-29
2022/11/19 10:53:02;;;;;;;5.50;4.00;;;;;;;;;;108569;1272;22499;-29
2022/11/19 10:55:39;;;;;;;5.50;3.80;;;;;;;;;;108564;1269;22526;-29
2022/11/19 10:58:18;;;;;;;5.80;3.90;;;;;;;;;;108577;1264;22546;-32
2022/11/19 11:00:50;;;;;;;5.60;3.60;;;;;;;;;;108505;1270;25304;-32
2022/11/19 11:03:34;;;;;;;5.20;3.80;;;;;;;;;;108538;1270;22555;-32
2022/11/19 11:06:09;;;;;;;5.50;3.70;;;;;;;;;;108552;1271;23841;-32
2022/11/19 11:08:51;;;;;;;5.50;3.50;;;;;;;;;;108638;1271;22551;-31
2022/11/19 11:17:24;;;;;;;5.40;3.70;;;;;;;;;;108339;1271;22532;-32
2022/11/19 11:20:08;;;;;;;5.50;3.70;;;;;;;;;;108600;1265;22596;-32
2022/11/19 11:22:43;;;;;;;5.90;3.90;;;;;;;;;;108568;1266;25274;-32
2022/11/19 11:25:22;;;;;;;;;;;;;;;;;;108538;1267;22546;-32
2022/11/19 11:28:08;;;;;;;5.50;3.80;;;;;;;;;;108530;1266;22568;-32
2022/11/19 11:30:55;;;;;;;6.60;3.90;;;;;;;;;;108527;1270;22743;-31
2022/11/19 11:33:35;;;;;;;5.70;3.80;;;;;;;;;;108559;1271;22516;-32
2022/11/19 11:36:14;;;;;;;5.70;4.10;;;;;;;;;;108599;1264;22559;-32
2022/11/19 11:38:48;;;;;;;6.40;4.40;;;;;;;;;;108493;1272;23885;-32
2022/11/19 11:41:23;;;;;;;5.80;3.70;;;;;;;;;;108574;1266;23841;-32
2022/11/19 11:44:07;;;;;;;5.40;3.70;;;;;;;;;;108538;1271;22519;-32
2022/11/19 11:46:47;;;;;;;5.40;3.70;;;;;;;;;;108531;1267;22567;-32
2022/11/19 11:49:34;;;;;;;5.40;3.60;;;;;;;;;;108570;1269;23943;-32
2022/11/19 11:52:18;;;;;;;5.70;3.70;;;;;;;;;;108570;1267;25418;-32
2022/11/19 11:55:03;;;;;;;5.80;3.90;;;;;;;;;;108587;1267;22533;-32
2022/11/19 11:57:37;;;;;;;6.50;3.90;;;;;;;;;;108544;1270;22598;-32
2022/11/19 12:00:38;;;;;;;5.70;3.80;;;;;;;;;;108526;1265;22555;-30
2022/11/19 12:03:13;;;;;;;5.80;3.80;;;;;;;;;;108325;1267;22512;-30
2022/11/19 12:06:02;;;;;;;5.50;3.80;;;;;;;;;;108586;1262;22554;-30
2022/11/19 12:08:54;;;;;;;6.90;3.70;;;;;;;;;;108516;1271;22591;-31
2022/11/19 12:14:23;;;;;;;6.50;3.80;;;;;;;;;;108576;1271;22576;-32
2022/11/19 12:17:21;;;;;;;6.20;3.70;;;;;;;;;;108576;1271;22565;-31
2022/11/19 12:20:21;;;;;;;6.20;3.50;;;;;;;;;;108496;1266;22514;-32
2022/11/19 12:23:26;;;;;;;5.40;3.80;;;;;;;;;;108520;1271;25386;-31
2022/11/19 12:26:14;;;;;;;5.70;3.70;;;;;;;;;;108533;1265;24183;-32
2022/11/19 12:29:02;;;;;;;5.50;3.60;;;;;;;;;;108532;1269;22488;-32
2022/11/19 12:31:54;;;;;;;5.10;3.70;;;;;;;;;;108539;1271;24044;-32
2022/11/19 12:35:09;;;;;;;5.30;3.70;;;;;;;;;;108532;1270;22596;-32
2022/11/19 12:38:01;;;;;;;5.90;3.70;;;;;;;;;;108552;1266;22553;-32
2022/11/19 12:40:45;;;;;;;5.40;3.50;;;;;;;;;;108512;1270;22594;-32
2022/11/19 12:43:42;;;;;;;6.30;3.70;;;;;;;;;;108523;1265;22552;-32
2022/11/19 12:46:24;;;;;;;6.10;3.60;;;;;;;;;;108533;1271;25401;-32
2022/11/19 12:49:16;;;;;;;5.60;3.50;;;;;;;;;;108570;1270;22556;-32
2022/11/19 12:51:57;;;;;;;5.20;3.50;;;;;;;;;;108580;1268;25254;-31
2022/11/19 12:54:51;;;;;;;6.80;3.80;;;;;;;;;;108539;1271;22560;-32
2022/11/19 12:57:40;;;;;;;;;;;;;;;;;;108578;1262;22522;-32
2022/11/19 13:00:20;;;;;;;6.00;3.60;;;;;;;;;;108496;1271;22530;-31
2022/11/19 13:03:05;;;;;;;5.40;3.70;;;;;;;;;;108529;1265;22554;-31
2022/11/19 13:05:51;;;;;;;5.00;3.50;;;;;;;;;;108534;1265;22547;-31
2022/11/19 13:08:34;;;;;;;5.20;3.80;;;;;;;;;;108542;1267;22554;-31
2022/11/19 13:11:14;;;;;;;5.50;3.60;;;;;;;;;;108511;1271;23864;-30
2022/11/19 13:13:50;;;;;;;5.80;3.70;;;;;;;;;;108548;1264;22625;-30
2022/11/19 13:16:25;;;;;;;5.10;3.30;;;;;;;;;;108563;1267;22557;-27
2022/11/19 13:19:14;;;;;;;5.30;3.50;;;;;;;;;;108577;1269;22575;-35
2022/11/19 13:21:55;;;;;;;5.30;3.70;;;;;;;;;;108547;1270;22557;-28
2022/11/19 13:24:37;;;;;;;5.40;3.60;;;;;;;;;;108501;1264;22555;-27
2022/11/19 13:27:15;;;;;;;5.50;3.30;;;;;;;;;;108551;1271;22497;-28
2022/11/19 13:29:53;;;;;;;5.60;3.50;;;;;;;;;;108479;1267;22565;-28
2022/11/19 13:32:33;;;;;;;5.80;3.60;;;;;;;;;;108501;1271;22555;-28
2022/11/19 13:35:16;;;;;;;6.20;3.70;;;;;;;;;;108514;1268;22557;-28
2022/11/19 13:37:57;;;;;;;5.80;3.80;;;;;;;;;;108537;1271;22570;-27
2022/11/19 13:40:37;;;;;;;5.70;3.60;;;;;;;;;;108450;1271;22616;-27
2022/11/19 13:46:19;;;;;;;6.40;3.80;;;;;;;;;;108492;1271;22552;-28
2022/11/19 13:49:07;;;;;;;6.50;3.60;;;;;;;;;;108536;1266;22498;-31
2022/11/19 13:51:44;;;;;;;6.00;3.70;;;;;;;;;;108549;1271;22511;-31
2022/11/19 13:54:26;;;;;;;5.70;3.70;;;;;;;;;;108530;1269;22557;-31
2022/11/19 13:57:01;;;;;;;6.40;3.70;;;;;;;;;;108404;1267;22986;-30
2022/11/19 13:59:39;;;;;;;5.50;3.40;;;;;;;;;;108545;1266;22605;-31
2022/11/19 14:02:53;;;;;;;6.20;3.50;;;;;;;;;;108500;1267;22612;-31
2022/11/19 14:05:54;;;;;;;5.50;3.50;;;;;;;;;;108554;1270;22531;-31
2022/11/19 14:08:55;;;;;;;5.40;3.40;;;;;;;;;;108453;1266;22487;-31
2022/11/19 14:12:03;;;;;;;5.40;3.50;;;;;;;;;;108496;1270;22690;-31
2022/11/19 14:27:18;;;;;;;5.30;3.60;;;;;;;;;;108548;1266;23262;-31
2022/11/19 14:30:05;;;;;;;5.40;3.40;;;;;;;;;;108561;1270;22526;-30
2022/11/19 14:32:48;;;;;;;6.20;4.30;;;;;;;;;;108514;1265;22506;-31
2022/11/19 14:35:38;;;;;;;6.60;3.70;;;;;;;;;;108553;1266;22607;-31
2022/11/19 14:38:38;;;;;;;5.90;3.90;;;;;;;;;;108542;1268;22500;-32
2022/11/19 14:41:32;;;;;;;8.00;4.40;;;;;;;;;;108528;1270;22816;-31
2022/11/19 14:44:15;;;;;;;6.30;4.10;;;;;;;;;;108593;1265;22609;-31
2022/11/19 14:46:52;;;;;;;5.90;3.70;;;;;;;;;;108578;1258;22555;-31
2022/11/19 14:49:33;;;;;;;6.70;4.10;;;;;;;;;;108545;1265;22703;-31
2022/11/19 14:52:20;;;;;;;6.30;3.80;;;;;;;;;;108574;1266;22550;-31
2022/11/19 14:55:00;;;;;;;6.00;4.20;;;;;;;;;;108593;1272;22539;-31
2022/11/19 14:57:36;;;;;;;5.80;3.80;;;;;;;;;;108562;1271;22500;-31
2022/11/19 15:00:28;;;;;;;6.90;4.10;;;;;;;;;;108546;1265;22603;-31
2022/11/19 15:03:02;;;;;;;6.60;4.00;;;;;;;;;;108500;1266;22541;-31
2022/11/19 15:05:43;;;;;;;6.50;4.10;;;;;;;;;;108543;1265;22552;-31
2022/11/19 15:08:48;;;;;;;6.60;4.20;;;;;;;;;;108600;1262;22529;-31
2022/11/19 15:11:22;;;;;;;6.20;4.40;;;;;;;;;;108568;1267;23896;-31
2022/11/19 15:15:03;;;;;;;6.20;3.90;;;;;;;;;;108548;1257;22717;-31
2022/11/19 15:17:31;;;;;;;6.20;3.70;;;;;;;;;;108548;1271;22625;-31
2022/11/19 15:20:20;;;;;;;;;;;;;;;;;;108567;1265;25380;-31
2022/11/19 15:23:04;;;;;;;6.60;4.50;;;;;;;;;;108525;1265;22501;-31
2022/11/19 15:25:47;;;;;;;6.10;4.30;;;;;;;;;;108549;1268;22513;-31
2022/11/19 15:28:37;;;;;;;6.00;4.20;;;;;;;;;;108575;1265;23899;-31
2022/11/19 15:31:31;;;;;;;6.40;4.30;;;;;;;;;;108503;1266;22501;-31
2022/11/19 15:34:39;;;;;;;6.80;4.40;;;;;;;;;;108513;1265;22551;-31
2022/11/19 15:37:16;;;;;;;6.30;4.20;;;;;;;;;;108547;1268;22557;-31
2022/11/19 15:39:53;;;;;;;5.80;3.90;;;;;;;;;;108540;1265;23844;-31
2022/11/19 15:42:38;;;;;;;6.30;4.10;;;;;;;;;;108506;1266;25410;-30
2022/11/19 15:45:18;;;;;;;7.10;4.60;;;;;;;;;;108578;1259;22499;-27
2022/11/19 15:47:56;;;;;;;6.30;4.20;;;;;;;;;;108544;1265;22563;-27
2022/11/19 15:50:28;;;;;;;6.90;4.40;;;;;;;;;;108600;1263;22556;-27
2022/11/19 15:53:14;;;;;;;5.60;4.00;;;;;;;;;;108504;1268;22539;-28
2022/11/19 15:55:55;;;;;;;6.30;4.30;;;;;;;;;;108601;1264;22986;-27
2022/11/19 15:58:32;;;;;;;6.90;4.00;;;;;;;;;;108589;1265;22798;-27
2022/11/19 16:01:07;;;;;;;7.10;3.90;;;;;;;;;;108591;1265;22548;-27
2022/11/19 16:03:42;;;;;;;5.70;3.90;;;;;;;;;;108517;1262;22561;-31
2022/11/19 16:06:21;;;;;;;6.70;4.50;;;;;;;;;;108557;1265;22778;-31
2022/11/19 16:08:59;;;;;;;7.60;4.20;;;;;;;;;;108605;1269;22575;-27
2022/11/19 16:17:34;;;;;;;6.50;4.00;;;;;;;;;;108538;1259;22548;-30
2022/11/19 16:20:23;;;;;;;6.90;4.20;;;;;;;;;;108490;1265;22612;-29
2022/11/19 16:23:00;;;;;;;6.60;4.10;;;;;;;;;;108481;1268;22563;-30
2022/11/19 16:25:39;;;;;;;7.00;4.10;;;;;;;;;;108509;1265;22608;-30
2022/11/19 16:28:15;;;;;;;6.70;3.90;;;;;;;;;;108469;1268;25238;-30
2022/11/19 16:30:58;;;;;;;6.90;4.10;;;;;;;;;;108441;1265;22518;-29
2022/11/19 16:33:33;;;;;;;6.50;4.20;;;;;;;;;;108385;1272;22618;-30
2022/11/19 16:36:20;;;;;;;6.30;4.20;;;;;;;;;;108555;1265;22566;-29
2022/11/19 16:38:54;;;;;;;6.60;4.10;;;;;;;;;;108488;1268;22575;-30